createdAt,value
2018-12-04T00:00:18.613Z,8.18
2018-12-04T00:02:50.949Z,8.08
2018-12-04T00:05:21.668Z,7.98
2018-12-04T00:07:54.183Z,7.84
2018-12-04T00:10:27.414Z,7.84
2018-12-04T00:12:57.183Z,7.70
2018-12-04T00:15:27.805Z,7.70
2018-12-04T00:17:58.396Z,7.73
2018-12-04T00:20:29.367Z,7.67
2018-12-04T00:22:59.169Z,7.63
2018-12-04T00:25:29.504Z,7.54
2018-12-04T00:27:59.720Z,7.54
2018-12-04T00:30:29.854Z,7.54
2018-12-04T00:33:00.076Z,7.49
2018-12-04T00:35:29.991Z,7.53
2018-12-04T00:38:04.381Z,7.43
2018-12-04T00:40:34.946Z,7.46
2018-12-04T00:43:04.952Z,7.44
2018-12-04T00:45:35.590Z,7.42
2018-12-04T00:48:05.792Z,7.36
2018-12-04T00:50:35.768Z,7.36
2018-12-04T00:53:09.578Z,7.32
2018-12-04T00:55:39.011Z,7.30
2018-12-04T00:58:08.911Z,7.32
2018-12-04T01:00:38.874Z,7.29
2018-12-04T01:03:09.114Z,7.28
2018-12-04T01:05:39.514Z,7.25
2018-12-04T01:08:09.554Z,7.27
2018-12-04T01:10:39.760Z,7.22
2018-12-04T01:13:09.950Z,7.20
2018-12-04T01:15:40.058Z,7.23
2018-12-04T01:18:09.974Z,7.22
2018-12-04T01:20:41.013Z,7.22
2018-12-04T01:23:11.072Z,7.19
2018-12-04T01:25:42.384Z,7.22
2018-12-04T01:28:12.316Z,7.19
2018-12-04T01:30:44.593Z,7.18
2018-12-04T01:33:15.147Z,7.17
2018-12-04T01:35:47.258Z,7.17
2018-12-04T01:38:17.626Z,7.18
2018-12-04T01:40:48.521Z,7.18
2018-12-04T01:43:18.398Z,7.19
2018-12-04T01:45:48.716Z,7.17
2018-12-04T01:48:18.440Z,7.16
2018-12-04T01:50:48.412Z,7.17
2018-12-04T01:53:18.401Z,7.16
2018-12-04T01:55:48.842Z,7.17
2018-12-04T01:58:21.816Z,7.18
2018-12-04T02:00:53.876Z,7.19
2018-12-04T02:03:29.318Z,7.20
2018-12-04T02:05:59.625Z,7.21
2018-12-04T02:08:29.636Z,7.17
2018-12-04T02:11:02.922Z,7.18
2018-12-04T02:13:33.158Z,7.18
2018-12-04T02:16:03.114Z,7.16
2018-12-04T02:18:36.362Z,7.16
2018-12-04T02:21:07.596Z,7.14
2018-12-04T02:23:37.237Z,7.17
2018-12-04T02:26:07.161Z,7.18
2018-12-04T02:28:42.640Z,7.17
2018-12-04T02:31:12.695Z,7.18
2018-12-04T02:33:42.544Z,7.18
2018-12-04T02:36:12.550Z,7.22
2018-12-04T02:38:42.646Z,7.24
2018-12-04T02:41:12.189Z,7.20
2018-12-04T02:43:41.874Z,7.21
2018-12-04T02:46:11.996Z,7.23
2018-12-04T02:48:44.590Z,7.23
2018-12-04T02:51:14.475Z,7.20
2018-12-04T02:53:44.218Z,7.20
2018-12-04T02:56:14.137Z,7.21
2018-12-04T02:58:44.165Z,7.19
2018-12-04T03:01:14.983Z,7.17
2018-12-04T03:03:44.692Z,7.14
2018-12-04T03:06:14.412Z,7.10
2018-12-04T03:08:44.307Z,7.07
2018-12-04T03:11:15.883Z,7.05
2018-12-04T03:13:46.302Z,7.02
2018-12-04T03:16:18.380Z,6.99
2018-12-04T03:18:49.696Z,6.98
2018-12-04T03:21:19.612Z,6.95
2018-12-04T03:23:50.098Z,6.95
2018-12-04T03:26:21.928Z,6.89
2018-12-04T03:28:51.981Z,6.89
2018-12-04T03:31:23.415Z,6.87
2018-12-04T03:33:53.797Z,6.83
2018-12-04T03:36:23.921Z,6.79
2018-12-04T03:38:57.603Z,6.77
2018-12-04T03:41:27.869Z,6.77
2018-12-04T03:43:57.557Z,6.76
2018-12-04T03:46:27.840Z,6.75
2018-12-04T03:48:57.763Z,6.74
2018-12-04T03:51:28.856Z,6.71
2018-12-04T03:53:58.920Z,6.72
2018-12-04T03:56:28.725Z,6.71
2018-12-04T03:58:58.874Z,6.76
2018-12-04T04:01:29.447Z,6.73
2018-12-04T04:03:59.317Z,6.69
2018-12-04T04:06:30.155Z,6.66
2018-12-04T04:09:01.007Z,6.62
2018-12-04T04:11:33.464Z,6.54
2018-12-04T04:14:04.122Z,6.56
2018-12-04T04:16:34.050Z,6.53
2018-12-04T04:19:03.974Z,6.49
2018-12-04T04:21:34.324Z,6.45
2018-12-04T04:24:06.758Z,6.44
2018-12-04T04:26:40.145Z,6.39
2018-12-04T04:29:09.919Z,6.36
2018-12-04T04:31:39.473Z,6.35
2018-12-04T04:34:09.809Z,6.36
2018-12-04T04:36:40.152Z,6.37
2018-12-04T04:39:10.537Z,6.37
2018-12-04T04:41:40.599Z,6.40
2018-12-04T04:44:10.689Z,6.35
2018-12-04T04:46:43.630Z,6.35
2018-12-04T04:49:13.749Z,6.33
2018-12-04T04:51:44.496Z,6.31
2018-12-04T04:54:14.809Z,6.26
2018-12-04T04:56:45.638Z,6.25
2018-12-04T04:59:16.219Z,6.24
2018-12-04T05:01:48.132Z,6.16
2018-12-04T05:04:20.244Z,6.13
2018-12-04T05:06:51.024Z,6.08
2018-12-04T05:09:21.235Z,6.08
2018-12-04T05:11:52.118Z,6.03
2018-12-04T05:14:23.708Z,5.99
2018-12-04T05:16:56.321Z,5.97
2018-12-04T05:19:27.330Z,5.95
2018-12-04T05:21:58.422Z,5.94
2018-12-04T05:24:28.335Z,5.92
2018-12-04T05:26:59.005Z,5.94
2018-12-04T05:29:28.867Z,5.91
2018-12-04T05:31:58.673Z,5.86
2018-12-04T05:34:28.660Z,5.80
2018-12-04T05:36:58.994Z,5.82
2018-12-04T05:39:29.064Z,5.76
2018-12-04T05:42:00.159Z,5.77
2018-12-04T05:44:31.402Z,5.74
2018-12-04T05:47:01.294Z,5.66
2018-12-04T05:49:31.164Z,5.64
2018-12-04T05:52:03.388Z,5.68
2018-12-04T05:54:31.672Z,5.64
2018-12-04T05:57:02.415Z,5.62
2018-12-04T05:59:32.317Z,5.59
2018-12-04T06:02:02.587Z,5.57
2018-12-04T06:04:33.448Z,5.52
2018-12-04T06:07:02.911Z,5.51
2018-12-04T06:09:32.615Z,5.51
2018-12-04T06:12:03.051Z,5.43
2018-12-04T06:14:34.742Z,5.44
2018-12-04T06:17:04.584Z,5.45
2018-12-04T06:19:34.857Z,5.43
2018-12-04T06:22:05.132Z,5.45
2018-12-04T06:24:37.103Z,5.45
2018-12-04T06:27:07.931Z,5.40
2018-12-04T06:29:38.989Z,5.40
2018-12-04T06:32:08.736Z,5.40
2018-12-04T06:34:42.814Z,5.43
2018-12-04T06:37:12.678Z,5.39
2018-12-04T06:39:44.598Z,5.41
2018-12-04T06:42:15.017Z,5.36
2018-12-04T06:44:46.849Z,5.35
2018-12-04T06:47:15.971Z,5.29
2018-12-04T06:49:47.084Z,5.28
2018-12-04T06:52:17.777Z,5.34
2018-12-04T06:54:47.923Z,5.34
2018-12-04T06:57:17.954Z,5.37
2018-12-04T06:59:47.350Z,5.39
2018-12-04T07:02:17.683Z,5.37
2018-12-04T07:04:49.551Z,5.37
2018-12-04T07:07:19.499Z,5.39
2018-12-04T07:09:49.590Z,5.43
2018-12-04T07:12:20.421Z,5.42
2018-12-04T07:14:51.917Z,5.40
2018-12-04T07:17:21.699Z,5.39
2018-12-04T07:19:52.203Z,5.32
2018-12-04T07:22:21.667Z,5.27
2018-12-04T07:24:51.831Z,5.35
2018-12-04T07:27:22.183Z,5.33
2018-12-04T07:29:55.297Z,5.30
2018-12-04T07:32:26.491Z,5.32
2018-12-04T07:34:56.160Z,5.30
2018-12-04T07:37:28.651Z,5.29
2018-12-04T07:40:03.991Z,5.29
2018-12-04T07:42:39.327Z,5.26
2018-12-04T07:45:12.615Z,5.23
2018-12-04T07:47:43.444Z,5.23
2018-12-04T07:50:14.987Z,5.25
2018-12-04T07:52:46.231Z,5.34
2018-12-04T07:55:17.437Z,5.34
2018-12-04T07:58:18.165Z,5.42
2018-12-04T08:00:50.206Z,5.45
2018-12-04T08:03:21.213Z,5.48
2018-12-04T08:05:54.129Z,5.51
2018-12-04T08:08:26.593Z,5.62
2018-12-04T08:11:01.915Z,5.64
2018-12-04T08:13:35.557Z,5.56
2018-12-04T08:16:07.864Z,5.68
2018-12-04T08:18:40.327Z,5.64
2018-12-04T08:21:10.871Z,5.67
2018-12-04T08:23:43.755Z,5.69
2018-12-04T08:26:16.955Z,5.74
2018-12-04T08:28:45.520Z,5.63
2018-12-04T08:31:16.652Z,5.62
2018-12-04T08:33:46.369Z,5.58
2018-12-04T08:36:19.528Z,5.58
2018-12-04T08:38:49.780Z,5.63
2018-12-04T08:41:20.408Z,5.64
2018-12-04T08:43:50.615Z,5.59
2018-12-04T08:46:23.224Z,5.56
2018-12-04T08:48:53.908Z,5.54
2018-12-04T08:51:27.416Z,5.55
2018-12-04T08:53:57.766Z,5.57
2018-12-04T08:56:29.603Z,5.53
2018-12-04T08:59:01.303Z,5.48
2018-12-04T09:01:32.286Z,5.49
2018-12-04T09:04:07.252Z,5.59
2018-12-04T09:06:40.981Z,5.61
2018-12-04T09:09:14.442Z,5.61
2018-12-04T09:11:49.120Z,5.71
2018-12-04T09:14:15.932Z,5.78
2018-12-04T09:16:49.601Z,5.81
2018-12-04T09:19:21.188Z,5.81
2018-12-04T09:21:49.400Z,5.75
2018-12-04T09:24:20.785Z,5.76
2018-12-04T09:26:51.690Z,5.80
2018-12-04T09:29:22.062Z,5.84
2018-12-04T09:31:52.192Z,5.85
2018-12-04T09:34:29.702Z,5.91
2018-12-04T09:36:53.545Z,5.91
2018-12-04T09:39:24.077Z,5.95
2018-12-04T09:41:54.278Z,5.97
2018-12-04T09:44:24.508Z,6.00
2018-12-04T09:46:54.643Z,6.06
2018-12-04T09:49:28.782Z,6.11
2018-12-04T09:52:01.560Z,6.07
2018-12-04T09:54:35.350Z,6.07
2018-12-04T09:57:07.598Z,6.14
2018-12-04T09:59:41.092Z,6.15
2018-12-04T10:02:15.428Z,6.18
2018-12-04T10:04:50.474Z,6.22
2018-12-04T10:07:22.880Z,6.36
2018-12-04T10:10:00.802Z,6.38
2018-12-04T10:12:30.778Z,6.45
2018-12-04T10:15:08.576Z,6.44
2018-12-04T10:17:39.468Z,6.31
2018-12-04T10:20:12.596Z,6.51
2018-12-04T10:22:43.219Z,6.51
2018-12-04T10:25:16.911Z,6.51
2018-12-04T10:27:46.968Z,6.62
2018-12-04T10:30:19.964Z,6.65
2018-12-04T10:32:57.117Z,6.73
2018-12-04T10:35:34.212Z,6.79
2018-12-04T10:38:08.220Z,6.71
2018-12-04T10:40:37.656Z,6.68
2018-12-04T10:43:11.098Z,6.72
2018-12-04T10:45:41.651Z,6.84
2018-12-04T10:48:19.314Z,6.90
2018-12-04T10:50:52.563Z,6.95
2018-12-04T10:53:30.479Z,6.83
2018-12-04T10:56:07.767Z,6.86
2018-12-04T10:58:40.623Z,7.03
2018-12-04T11:01:49.006Z,7.11
2018-12-04T11:04:26.024Z,7.03
2018-12-04T11:06:59.317Z,7.00
2018-12-04T11:09:33.111Z,7.07
2018-12-04T11:12:03.960Z,7.14
2018-12-04T11:14:36.929Z,7.37
2018-12-04T11:17:07.897Z,8.32
2018-12-04T11:19:43.585Z,8.32
2018-12-04T11:22:18.687Z,8.61
2018-12-04T11:24:53.465Z,8.89
2018-12-04T11:27:23.990Z,9.18
2018-12-04T11:30:07.550Z,9.67
2018-12-04T11:32:42.985Z,9.56
2018-12-04T11:35:16.119Z,9.75
2018-12-04T11:37:52.242Z,9.89
2018-12-04T11:40:30.565Z,9.50
2018-12-04T11:43:02.050Z,9.59
2018-12-04T11:45:35.804Z,9.79
2018-12-04T11:48:13.787Z,9.71
2018-12-04T11:50:51.642Z,9.81
2018-12-04T11:53:27.514Z,9.79
2018-12-04T11:55:59.266Z,10.09
2018-12-04T11:59:00.378Z,10.48
2018-12-04T12:01:30.748Z,10.22
2018-12-04T12:04:01.688Z,10.67
2018-12-04T12:06:33.980Z,10.90
2018-12-04T12:09:05.876Z,11.22
2018-12-04T12:11:35.763Z,11.04
2018-12-04T12:14:09.263Z,10.79
2018-12-04T12:16:42.538Z,10.85
2018-12-04T12:19:13.540Z,10.60
2018-12-04T12:21:44.201Z,10.49
2018-12-04T12:24:16.560Z,10.92
2018-12-04T12:26:50.503Z,10.74
2018-12-04T12:29:21.442Z,10.38
2018-12-04T12:31:56.116Z,10.64
2018-12-04T12:34:24.611Z,10.26
2018-12-04T12:36:58.167Z,10.74
2018-12-04T12:39:32.160Z,10.37
2018-12-04T12:42:06.029Z,10.30
2018-12-04T12:44:39.569Z,9.91
2018-12-04T12:47:12.127Z,10.35
2018-12-04T12:49:42.605Z,10.95
2018-12-04T12:52:13.981Z,10.93
2018-12-04T12:54:44.617Z,10.74
2018-12-04T12:57:14.910Z,10.88
2018-12-04T12:59:51.560Z,11.03
2018-12-04T13:02:22.388Z,11.29
2018-12-04T13:04:53.622Z,11.20
2018-12-04T13:07:27.504Z,11.01
2018-12-04T13:10:03.698Z,10.31
2018-12-04T13:12:35.344Z,10.45
2018-12-04T13:15:09.756Z,10.63
2018-12-04T13:17:43.857Z,10.34
2018-12-04T13:20:15.366Z,10.20
2018-12-04T13:22:44.015Z,10.29
2018-12-04T13:25:14.727Z,10.64
2018-12-04T13:27:45.039Z,10.93
2018-12-04T13:30:15.105Z,10.31
2018-12-04T13:32:48.101Z,10.22
2018-12-04T13:35:18.331Z,10.12
2018-12-04T13:37:51.386Z,9.81
2018-12-04T13:40:21.610Z,10.11
2018-12-04T13:42:52.294Z,10.11
2018-12-04T13:45:29.185Z,10.04
2018-12-04T13:48:00.923Z,9.97
2018-12-04T13:50:33.709Z,10.20
2018-12-04T13:53:18.427Z,9.98
2018-12-04T13:55:52.414Z,9.95
2018-12-04T13:58:20.329Z,9.49
2018-12-04T14:00:50.539Z,9.45
2018-12-04T14:03:25.674Z,9.57
2018-12-04T14:05:56.387Z,9.40
2018-12-04T14:08:27.791Z,9.27
2018-12-04T14:11:01.028Z,8.84
2018-12-04T14:13:31.205Z,8.57
2018-12-04T14:16:02.595Z,8.43
2018-12-04T14:18:32.954Z,8.19
2018-12-04T14:21:03.313Z,8.31
2018-12-04T14:23:33.810Z,8.31
2018-12-04T14:26:04.064Z,8.40
2018-12-04T14:28:34.251Z,8.32
2018-12-04T14:31:05.451Z,8.22
2018-12-04T14:33:38.891Z,8.08
2018-12-04T14:36:09.054Z,7.91
2018-12-04T14:38:39.594Z,7.83
2018-12-04T14:41:09.814Z,7.36
2018-12-04T14:43:42.584Z,7.36
2018-12-04T14:46:13.125Z,7.24
2018-12-04T14:48:44.519Z,7.03
2018-12-04T14:51:15.701Z,7.03
2018-12-04T14:53:46.323Z,6.89
2018-12-04T14:56:16.743Z,6.90
2018-12-04T14:58:46.987Z,6.77
2018-12-04T15:01:20.492Z,6.61
2018-12-04T15:03:50.854Z,6.61
2018-12-04T15:06:21.028Z,6.59
2018-12-04T15:08:51.927Z,6.43
2018-12-04T15:11:21.883Z,6.40
2018-12-04T15:13:53.024Z,6.33
2018-12-04T15:16:24.049Z,6.27
2018-12-04T15:18:54.573Z,6.23
2018-12-04T15:21:24.505Z,6.18
2018-12-04T15:23:55.028Z,6.20
2018-12-04T15:26:26.125Z,6.08
2018-12-04T15:28:59.332Z,6.00
2018-12-04T15:31:32.552Z,5.90
2018-12-04T15:34:03.115Z,5.88
2018-12-04T15:36:33.540Z,5.75
2018-12-04T15:39:06.041Z,5.75
2018-12-04T15:41:34.211Z,5.74
2018-12-04T15:44:05.398Z,5.77
2018-12-04T15:46:35.672Z,5.90
2018-12-04T15:49:06.057Z,5.86
2018-12-04T15:51:37.223Z,5.85
2018-12-04T15:54:07.712Z,5.90
2018-12-04T15:56:40.406Z,5.89
2018-12-04T15:59:10.732Z,5.93
2018-12-04T16:01:41.387Z,5.92
2018-12-04T16:04:12.293Z,6.00
2018-12-04T16:06:43.121Z,5.97
2018-12-04T16:09:16.142Z,5.93
2018-12-04T16:11:47.681Z,5.86
2018-12-04T16:14:18.663Z,5.81
2018-12-04T16:16:49.333Z,5.71
2018-12-04T16:19:19.927Z,5.66
2018-12-04T16:21:50.549Z,5.59
2018-12-04T16:24:21.375Z,5.53
2018-12-04T16:26:53.477Z,5.42
2018-12-04T16:29:21.918Z,5.32
2018-12-04T16:31:52.343Z,5.32
2018-12-04T16:34:22.837Z,5.27
2018-12-04T16:36:55.697Z,5.20
2018-12-04T16:39:26.242Z,5.11
2018-12-04T16:41:58.977Z,5.06
2018-12-04T16:44:27.044Z,4.99
2018-12-04T16:46:57.435Z,4.98
2018-12-04T16:49:32.137Z,4.93
2018-12-04T16:52:02.863Z,4.86
2018-12-04T16:54:34.186Z,4.78
2018-12-04T16:57:04.820Z,4.74
2018-12-04T16:59:37.769Z,4.68
2018-12-04T17:02:07.932Z,4.64
2018-12-04T17:04:40.565Z,4.61
2018-12-04T17:07:16.041Z,4.56
2018-12-04T17:09:46.567Z,4.59
2018-12-04T17:12:16.583Z,4.55
2018-12-04T17:14:47.057Z,4.59
2018-12-04T17:17:16.841Z,4.57
2018-12-04T17:19:46.949Z,4.48
2018-12-04T17:22:17.389Z,4.44
2018-12-04T17:24:47.901Z,4.39
2018-12-04T17:27:18.833Z,4.36
2018-12-04T17:29:55.055Z,4.44
2018-12-04T17:32:29.155Z,4.43
2018-12-04T17:35:01.723Z,4.35
2018-12-04T17:37:31.361Z,4.35
2018-12-04T17:40:01.331Z,4.33
2018-12-04T17:42:31.263Z,4.30
2018-12-04T17:45:01.532Z,4.39
2018-12-04T17:47:32.553Z,4.36
2018-12-04T17:50:05.817Z,4.35
2018-12-04T17:52:35.849Z,4.35
2018-12-04T17:55:06.414Z,4.32
2018-12-04T17:57:37.126Z,4.29
2018-12-04T18:00:07.622Z,4.26
2018-12-04T18:02:37.366Z,4.30
2018-12-04T18:05:07.013Z,4.22
2018-12-04T18:07:37.214Z,4.22
2018-12-04T18:10:08.499Z,4.25
2018-12-04T18:12:38.708Z,4.19
2018-12-04T18:15:11.891Z,4.15
2018-12-04T18:17:42.154Z,4.12
2018-12-04T18:20:11.812Z,4.15
2018-12-04T18:22:41.627Z,4.19
2018-12-04T18:25:11.194Z,4.19
2018-12-04T18:27:40.951Z,4.16
2018-12-04T18:30:10.682Z,4.20
2018-12-04T18:32:40.729Z,4.15
2018-12-04T18:35:10.337Z,4.12
2018-12-04T18:37:40.435Z,4.19
2018-12-04T18:40:10.143Z,4.20
2018-12-04T18:42:40.035Z,4.16
2018-12-04T18:45:09.970Z,4.10
2018-12-04T18:47:42.224Z,4.04
2018-12-04T18:50:12.584Z,4.04
2018-12-04T18:52:42.265Z,4.06
2018-12-04T18:55:17.644Z,4.11
2018-12-04T18:57:47.561Z,4.15
2018-12-04T19:00:17.416Z,4.03
2018-12-04T19:02:50.342Z,4.05
2018-12-04T19:05:22.349Z,3.97
2018-12-04T19:07:50.135Z,3.92
2018-12-04T19:10:20.552Z,3.97
2018-12-04T19:12:50.572Z,3.91
2018-12-04T19:15:20.328Z,3.89
2018-12-04T19:17:49.905Z,3.90
2018-12-04T19:20:19.631Z,3.86
2018-12-04T19:22:50.054Z,3.87
2018-12-04T19:25:20.010Z,3.90
2018-12-04T19:27:51.722Z,3.84
2018-12-04T19:30:21.932Z,3.79
2018-12-04T19:32:51.798Z,4.00
2018-12-04T19:35:22.563Z,3.91
2018-12-04T19:37:53.009Z,3.94
2018-12-04T19:40:23.149Z,3.92
2018-12-04T19:42:56.529Z,3.82
2018-12-04T19:45:26.780Z,3.82
2018-12-04T19:48:02.116Z,3.83
2018-12-04T19:50:32.175Z,3.76
2018-12-04T19:53:02.373Z,3.72
2018-12-04T19:55:33.749Z,3.73
2018-12-04T19:58:12.866Z,3.71
2018-12-04T20:00:43.602Z,3.69
2018-12-04T20:03:13.013Z,3.75
2018-12-04T20:05:43.943Z,3.74
2018-12-04T20:08:14.033Z,3.71
2018-12-04T20:10:44.460Z,3.61
2018-12-04T20:13:14.625Z,3.58
2018-12-04T20:15:50.136Z,3.56
2018-12-04T20:18:22.967Z,3.55
2018-12-04T20:20:56.125Z,3.54
2018-12-04T20:23:27.475Z,3.52
2018-12-04T20:25:57.597Z,3.48
2018-12-04T20:28:27.928Z,3.52
2018-12-04T20:30:57.971Z,3.49
2018-12-04T20:33:27.689Z,3.55
2018-12-04T20:35:57.800Z,3.53
2018-12-04T20:38:28.406Z,3.50
2018-12-04T20:41:01.147Z,3.43
2018-12-04T20:43:32.044Z,3.42
2018-12-04T20:46:05.955Z,3.43
2018-12-04T20:48:37.517Z,3.39
2018-12-04T20:51:08.343Z,3.33
2018-12-04T20:53:39.053Z,3.28
2018-12-04T20:56:10.979Z,3.24
2018-12-04T20:58:42.345Z,3.23
2018-12-04T21:01:12.764Z,3.21
2018-12-04T21:03:49.412Z,3.19
2018-12-04T21:06:20.135Z,3.18
2018-12-04T21:08:52.464Z,3.18
2018-12-04T21:11:26.393Z,3.16
2018-12-04T21:13:56.395Z,3.17
2018-12-04T21:16:30.870Z,3.13
2018-12-04T21:19:05.474Z,3.10
2018-12-04T21:21:35.098Z,3.09
2018-12-04T21:24:08.056Z,3.03
2018-12-04T21:26:41.470Z,3.01
2018-12-04T21:29:32.623Z,2.99
2018-12-04T21:32:23.767Z,2.96
2018-12-04T21:35:20.118Z,2.93
2018-12-04T21:38:07.728Z,2.92
2018-12-04T21:40:57.573Z,0.02
2018-12-04T21:43:43.818Z,2.87
2018-12-04T21:46:39.108Z,2.85
2018-12-04T21:49:12.442Z,2.83
2018-12-04T21:51:52.738Z,2.82
2018-12-04T21:54:23.905Z,2.83
2018-12-04T21:56:59.276Z,2.82
2018-12-04T21:59:36.495Z,2.80
2018-12-04T22:02:06.292Z,2.79
2018-12-04T22:04:36.080Z,2.79
2018-12-04T22:07:06.900Z,2.79
2018-12-04T22:09:36.704Z,2.85
2018-12-04T22:12:09.709Z,2.92
2018-12-04T22:14:46.116Z,2.89
2018-12-04T22:17:18.404Z,2.85
2018-12-04T22:19:49.124Z,2.81
2018-12-04T22:22:22.918Z,2.77
2018-12-04T22:24:53.260Z,2.74
2018-12-04T22:27:23.868Z,2.75
2018-12-04T22:29:53.556Z,2.72
2018-12-04T22:32:30.509Z,2.68
2018-12-04T22:35:00.277Z,2.63
2018-12-04T22:37:30.438Z,2.59
2018-12-04T22:40:01.263Z,2.53
2018-12-04T22:42:31.235Z,2.48
2018-12-04T22:45:20.701Z,2.45
2018-12-04T22:47:49.254Z,2.43
2018-12-04T22:50:23.173Z,2.42
2018-12-04T22:52:56.630Z,2.41
2018-12-04T22:55:29.581Z,2.36
2018-12-04T22:57:59.750Z,2.35
2018-12-04T23:00:46.348Z,2.35
2018-12-04T23:03:19.736Z,2.36
2018-12-04T23:05:50.979Z,2.36
2018-12-04T23:08:24.020Z,2.37
2018-12-04T23:10:53.468Z,2.35
2018-12-04T23:13:27.385Z,2.36
2018-12-04T23:15:57.614Z,2.38
2018-12-04T23:18:28.814Z,2.37
2018-12-04T23:20:59.750Z,2.37
2018-12-04T23:23:30.652Z,2.37
2018-12-04T23:26:01.308Z,2.36
2018-12-04T23:28:32.822Z,2.36
2018-12-04T23:31:03.494Z,2.35
2018-12-04T23:33:33.410Z,2.34
2018-12-04T23:36:04.712Z,2.32
2018-12-04T23:38:47.961Z,2.31
2018-12-04T23:41:20.992Z,2.31
2018-12-04T23:43:54.374Z,2.29
2018-12-04T23:46:28.420Z,2.27
2018-12-04T23:48:59.121Z,2.26
2018-12-04T23:51:32.367Z,2.25
2018-12-04T23:54:06.961Z,2.25
2018-12-04T23:56:37.728Z,2.26
2018-12-04T23:59:09.401Z,2.26
